This is the latest recevied weather packets stored in our database for station/object KB6HGN. If no packets are shown the sender has not sent any weather packets the latest 10 day(s).
| Time | Temp. | Humidity | Pressure | Rain* | Wind** | Luminosity | Snow |
|---|---|---|---|---|---|---|---|
| 1778010604 | 20.56° C | 44% | 1015.2 hPa | 0 mm | - | 898 W/m² | - |
| 1778007605 | 18.33° C | 52% | 1015.6 hPa | 0 mm | - | 990 W/m² | - |
| 1778003704 | 17.22° C | 60% | 1015.6 hPa | 0 mm | - | 812 W/m² | - |
| 1778000704 | 16.67° C | 65% | 1015.2 hPa | 0 mm | - | 703 W/m² | - |
| 1778000406 | 17.22° C | 69% | 1015.2 hPa | 0 mm | - | 698 W/m² | - |
| 1777998904 | 15° C | 79% | 1015.2 hPa | 0 mm | - | 665 W/m² | - |
| 1777995304 | 13.89° C | 86% | 1014.6 hPa | 0 mm | - | 375 W/m² | - |
| 1777993505 | 13.89° C | 89% | 1014.5 hPa | 0 mm | - | 351 W/m² | - |
| 1777990805 | 12.78° C | 89% | 1014.2 hPa | 0 mm | - | 109 W/m² | - |
| 1777990505 | 12.78° C | 89% | 1014.2 hPa | 0 mm | - | 88 W/m² | - |
| 1777989005 | 12.78° C | 89% | 1014.2 hPa | 0 mm | - | 8 W/m² | - |
| 1777988404 | 12.78° C | 88% | 1014.2 hPa | 0 mm | - | 7 W/m² | - |
| 1777986605 | 12.78° C | 89% | 1013.9 hPa | 0.25 mm | - | 0 W/m² | - |
| 1777986304 | 12.78° C | 88% | 1013.9 hPa | 0.51 mm | - | 0 W/m² | - |
| 1777984504 | 12.22° C | 88% | 1013.9 hPa | 1.78 mm | - | 0 W/m² | - |
| 1777983905 | 12.22° C | 88% | 1013.9 hPa | 2.03 mm | - | 0 W/m² | - |
| 1777983605 | 12.22° C | 88% | 1013.9 hPa | 2.03 mm | - | 0 W/m² | - |
| 1777977004 | 13.33° C | 79% | 1013.9 hPa | 0 mm | - | 0 W/m² | - |
| 1777975804 | 13.33° C | 79% | 1014.2 hPa | 0 mm | - | 0 W/m² | - |
| 1777973104 | 13.89° C | 77% | 1014.2 hPa | 0 mm | - | 0 W/m² | - |
| 1777971604 | 13.89° C | 77% | 1014.6 hPa | 0 mm | - | 0 W/m² | - |
| 1777970404 | 13.33° C | 76% | 1014.6 hPa | 0 mm | - | 0 W/m² | - |
| 1777969805 | 13.33° C | 76% | 1014.9 hPa | 0 mm | - | 0 W/m² | - |
| 1777967404 | 13.33° C | 74% | 1015.2 hPa | 0 mm | - | 0 W/m² | - |
| 1777960805 | 14.44° C | 73% | 1015.2 hPa | 0 mm | - | 0 W/m² | - |
* Rain latest hour (hover to see other rain measurements)
** Current wind speed in m/s (hover to see current wind gust speed)